Archival Weather

Norman Y Mineta San Jose Intl

San Jose, California (KSJC)

Report from: Sunday, January 28, 2024 1:53 PM PST
Current time: Friday, June 14, 2024 5:01 AM PDT

Current weather – Weather history – Daily summaries
Weather forecast

Temperature20.6°C (69.1°F)
Dew point10.6°C (51.1°F)
Winds Calm
Visibility10 mi. (16.1 km)
Clouds Few clouds 6,000 ft. (1,829 m)
Ceiling: Broken clouds 12,000 ft. (3,658 m)
Broken clouds 18,000 ft. (5,486 m)
Altimeter30.12 in.Hg (1020 mB)
Relative humidity53 %
Density altitude609 ft. (186 m)
Sea-level pressure102.0 kPa (1020 mB, 30.12 in.Hg)
Remarks Automated weather observing station with precipitation discriminator
Flight conditions Visual Meteorological Conditions
Raw dataKSJC 282153Z 00000KT 10SM FEW060 BKN120 BKN180 21/11 A3012 RMK AO2 SLP200 T02060106
An error has occurred. This application may no longer respond until reloaded. Reload 🗙